Time;durP1;ratioP1;P1;durP2;ratioP2;P2;SDS_P1;SDS_P2;PMS_P1;PMS_P2;Temp;Humidity;BMP_temperature;BMP_pressure;BME280_temperature;BME280_humidity;BME280_pressure;Samples;Min_cycle;Max_cycle;Signal;HPM_P1;HPM_P2
2022/01/16 00:00:21;;;;;;;11.18;8.07;;;18.70;46.60;;;;;;5070288;28;20438;-68
2022/01/16 00:05:30;;;;;;;12.10;8.27;;;18.60;46.50;;;;;;5073974;28;20033;-66
2022/01/16 00:07:56;;;;;;;11.55;7.65;;;18.60;46.50;;;;;;5067843;28;20017;-66
2022/01/16 00:10:24;;;;;;;11.10;8.10;;;18.60;46.60;;;;;;5071572;28;20091;-66
2022/01/16 00:12:50;;;;;;;11.50;8.05;;;18.60;46.60;;;;;;5057319;28;20367;-66
2022/01/16 00:15:20;;;;;;;10.77;7.85;;;18.60;46.60;;;;;;5055526;28;20021;-66
2022/01/16 00:18:08;;;;;;;11.27;7.65;;;18.60;46.40;;;;;;5068438;28;20464;-67
2022/01/16 00:20:34;;;;;;;12.73;7.90;;;18.50;46.30;;;;;;5062347;28;20024;-70
2022/01/16 00:23:00;;;;;;;10.90;7.70;;;18.50;46.30;;;;;;5072124;28;20418;-70
2022/01/16 00:25:26;;;;;;;10.00;7.43;;;18.50;46.20;;;;;;5073418;28;20031;-70
2022/01/16 00:27:52;;;;;;;10.20;7.13;;;18.50;46.20;;;;;;5062963;28;20041;-69
2022/01/16 00:30:18;;;;;;;12.45;8.15;;;18.50;46.20;;;;;;5057416;28;20116;-70
2022/01/16 00:32:46;;;;;;;10.73;7.38;;;18.40;46.00;;;;;;5073127;28;20483;-70
2022/01/16 00:35:12;;;;;;;12.85;8.45;;;18.40;46.00;;;;;;5074563;28;20044;-70
2022/01/16 00:37:39;;;;;;;12.35;7.65;;;18.40;45.90;;;;;;5073604;28;20078;-70
2022/01/16 00:40:06;;;;;;;11.27;7.95;;;18.30;45.80;;;;;;5074380;28;20017;-70
2022/01/16 00:42:31;;;;;;;10.93;7.53;;;18.40;45.80;;;;;;5065864;28;20049;-70
2022/01/16 00:44:57;;;;;;;9.82;7.30;;;18.30;45.70;;;;;;5055348;28;20048;-70
2022/01/16 00:47:22;;;;;;;10.40;7.00;;;18.30;45.70;;;;;;5061678;28;20131;-69
2022/01/16 00:49:48;;;;;;;10.02;7.45;;;18.30;45.70;;;;;;5055134;28;20476;-70
2022/01/16 00:52:14;;;;;;;11.60;7.63;;;18.30;45.60;;;;;;5069861;28;20036;-70
2022/01/16 00:54:39;;;;;;;10.45;7.53;;;18.30;45.60;;;;;;5059830;28;20037;-70
2022/01/16 00:57:05;;;;;;;11.13;7.97;;;18.30;45.60;;;;;;5068553;28;20059;-70
2022/01/16 00:59:31;;;;;;;10.38;7.32;;;18.20;45.50;;;;;;5075099;28;20030;-70
2022/01/16 01:01:57;;;;;;;10.70;7.57;;;18.20;45.50;;;;;;5065847;28;20029;-66
2022/01/16 01:04:23;;;;;;;10.82;7.93;;;18.20;45.50;;;;;;5054988;28;20033;-66
2022/01/16 01:06:50;;;;;;;10.35;7.07;;;18.20;45.50;;;;;;5071827;28;20109;-66
2022/01/16 01:09:16;;;;;;;9.85;7.20;;;18.20;45.50;;;;;;5069550;28;20120;-66
2022/01/16 01:11:45;;;;;;;10.77;7.53;;;18.10;45.40;;;;;;5073126;28;20030;-66
2022/01/16 01:14:19;;;;;;;11.82;7.82;;;18.10;45.40;;;;;;5059784;28;20029;-66
2022/01/16 01:17:04;;;;;;;9.75;7.40;;;18.10;45.40;;;;;;5038637;28;20475;-66
2022/01/16 01:19:34;;;;;;;9.77;6.95;;;18.10;45.40;;;;;;5045422;28;20024;-66
2022/01/16 01:22:01;;;;;;;11.48;7.90;;;18.00;45.40;;;;;;5060961;28;20031;-66
2022/01/16 01:24:29;;;;;;;9.88;6.88;;;18.00;45.30;;;;;;5060705;28;20020;-66
2022/01/16 01:27:09;;;;;;;10.40;6.80;;;18.00;45.30;;;;;;5073615;28;20135;-66
2022/01/16 01:29:35;;;;;;;10.05;7.30;;;18.00;45.30;;;;;;5072598;28;20063;-66
2022/01/16 01:32:01;;;;;;;11.15;7.57;;;18.00;45.40;;;;;;5067373;28;20517;-67
2022/01/16 01:34:27;;;;;;;11.48;7.80;;;18.00;45.30;;;;;;5060521;28;20040;-67
2022/01/16 01:36:53;;;;;;;10.20;7.00;;;18.00;45.20;;;;;;5058051;28;20045;-66
2022/01/16 01:39:20;;;;;;;10.63;7.40;;;17.90;45.20;;;;;;5073821;28;20467;-66
2022/01/16 01:41:50;;;;;;;12.10;7.55;;;17.90;45.20;;;;;;5071693;28;20030;-67
2022/01/16 01:52:29;;;;;;;10.63;6.75;;;17.80;45.10;;;;;;5063589;28;20125;-70
2022/01/16 01:54:55;;;;;;;10.32;7.57;;;17.80;45.10;;;;;;5069799;28;20495;-70
2022/01/16 01:57:20;;;;;;;9.18;6.80;;;17.80;45.00;;;;;;5061901;28;20060;-67
2022/01/16 01:59:46;;;;;;;10.75;7.07;;;17.80;45.10;;;;;;5073785;28;20380;-66
2022/01/16 02:02:12;;;;;;;9.98;7.40;;;17.80;45.00;;;;;;5064791;28;20046;-67
2022/01/16 02:04:37;;;;;;;11.27;7.50;;;17.80;45.00;;;;;;5073077;28;20025;-70
2022/01/16 02:07:03;;;;;;;9.45;7.10;;;17.80;45.10;;;;;;5073127;28;20052;-70
2022/01/16 02:09:31;;;;;;;9.60;6.97;;;17.70;45.00;;;;;;5055901;28;20534;-66
2022/01/16 02:11:58;;;;;;;10.80;7.35;;;17.70;45.00;;;;;;5062312;28;20040;-66
2022/01/16 02:35:49;;;;;;;11.65;7.38;;;17.60;44.90;;;;;;5056831;28;20036;-70
2022/01/16 02:38:15;;;;;;;11.68;7.47;;;17.60;44.90;;;;;;5067303;28;20028;-70
2022/01/16 02:40:49;;;;;;;10.88;7.57;;;17.60;44.90;;;;;;5071493;28;20046;-70
2022/01/16 02:43:17;;;;;;;10.07;6.90;;;17.50;44.80;;;;;;5071039;28;20025;-70
2022/01/16 02:45:47;;;;;;;11.05;7.35;;;17.50;44.80;;;;;;5064968;28;20036;-70
2022/01/16 02:48:12;;;;;;;10.93;7.38;;;17.50;44.80;;;;;;5044684;28;20463;-71
2022/01/16 02:50:39;;;;;;;10.82;7.13;;;17.50;44.80;;;;;;5059295;28;20108;-67
2022/01/16 02:53:11;;;;;;;10.68;7.05;;;17.50;44.80;;;;;;5076876;28;20542;-66
2022/01/16 02:55:41;;;;;;;11.00;7.45;;;17.50;44.80;;;;;;5074741;28;20033;-67
2022/01/16 02:58:07;;;;;;;11.60;7.28;;;17.50;44.80;;;;;;5057129;28;20147;-66
2022/01/16 03:00:32;;;;;;;10.40;7.07;;;17.40;44.80;;;;;;5067612;28;20120;-67
2022/01/16 03:02:58;;;;;;;10.80;7.03;;;17.40;44.80;;;;;;5077279;28;20460;-67
2022/01/16 03:05:24;;;;;;;9.38;6.50;;;17.40;44.80;;;;;;5076256;28;20055;-67
2022/01/16 03:07:50;;;;;;;10.82;7.30;;;17.40;45.70;;;;;;5071703;28;20032;-67
2022/01/16 03:12:47;;;;;;;11.85;7.70;;;17.40;44.70;;;;;;5060684;28;20036;-67
2022/01/16 03:15:14;;;;;;;10.38;7.00;;;17.40;44.70;;;;;;5062571;28;20036;-67
2022/01/16 03:21:53;;;;;;;10.18;7.40;;;17.40;44.70;;;;;;5062769;28;20051;-67
2022/01/16 03:23:13;;;;;;;11.45;7.13;;;17.30;44.70;;;;;;5075787;28;20039;-67
2022/01/16 03:25:38;;;;;;;9.68;6.45;;;17.30;44.70;;;;;;5075766;28;20031;-67
2022/01/16 03:28:04;;;;;;;10.35;7.40;;;17.30;44.80;;;;;;5073565;28;20386;-67
2022/01/16 03:30:30;;;;;;;10.07;7.30;;;17.30;44.80;;;;;;5075880;28;20104;-67
2022/01/16 03:32:56;;;;;;;9.95;6.75;;;17.30;44.70;;;;;;5075274;28;20537;-67
2022/01/16 03:35:22;;;;;;;10.57;6.85;;;17.30;44.70;;;;;;5070248;28;20033;-67
2022/01/16 03:37:47;;;;;;;10.25;7.13;;;17.20;44.70;;;;;;5050612;28;20044;-71
2022/01/16 03:40:14;;;;;;;10.23;7.05;;;17.20;44.70;;;;;;5060994;28;20025;-71
2022/01/16 03:42:40;;;;;;;10.70;7.35;;;17.20;44.70;;;;;;5066962;28;20043;-70
2022/01/16 03:45:07;;;;;;;11.13;7.18;;;17.20;44.70;;;;;;5060213;28;20434;-71
2022/01/16 03:47:34;;;;;;;10.15;6.82;;;17.20;44.70;;;;;;5073417;28;20075;-71
2022/01/16 03:50:00;;;;;;;10.98;6.88;;;17.20;44.70;;;;;;5072273;28;20094;-71
2022/01/16 03:52:25;;;;;;;11.48;7.53;;;17.20;44.70;;;;;;5065581;28;20439;-70
2022/01/16 03:54:51;;;;;;;11.43;7.80;;;17.20;44.70;;;;;;5056145;28;20044;-70
2022/01/16 03:57:17;;;;;;;11.57;7.05;;;17.10;44.60;;;;;;5070333;28;20036;-70
2022/01/16 03:59:42;;;;;;;10.07;7.13;;;17.10;44.60;;;;;;5057140;28;20037;-70
2022/01/16 04:02:08;;;;;;;11.10;7.22;;;17.10;44.60;;;;;;5066150;28;20100;-70
2022/01/16 04:04:34;;;;;;;10.90;7.07;;;17.10;44.60;;;;;;5071404;28;20073;-67
2022/01/16 04:07:00;;;;;;;11.95;7.05;;;17.10;44.60;;;;;;5066531;28;20043;-67
2022/01/16 04:09:26;;;;;;;10.50;6.97;;;17.10;44.60;;;;;;5072202;28;20043;-67
2022/01/16 04:11:56;;;;;;;11.20;7.13;;;17.10;44.60;;;;;;5058551;28;20392;-70
2022/01/16 04:17:13;;;;;;;11.02;7.28;;;17.10;44.70;;;;;;5033290;28;20049;-71
2022/01/16 04:19:38;;;;;;;11.07;7.25;;;17.00;44.60;;;;;;5059489;28;20496;-70
2022/01/16 04:22:04;;;;;;;11.38;7.57;;;17.00;44.60;;;;;;5068992;28;20041;-70
2022/01/16 04:24:30;;;;;;;12.27;7.38;;;17.00;44.60;;;;;;5069605;28;20020;-70
2022/01/16 04:26:55;;;;;;;10.25;7.20;;;17.00;44.60;;;;;;5074563;28;20090;-70
2022/01/16 04:29:21;;;;;;;10.95;7.65;;;17.00;44.60;;;;;;5066039;28;20414;-70
2022/01/16 04:31:47;;;;;;;11.07;7.63;;;17.00;44.60;;;;;;5067168;28;20056;-70
2022/01/16 04:34:12;;;;;;;12.52;7.47;;;17.00;44.60;;;;;;5057424;28;20417;-66
2022/01/16 04:36:38;;;;;;;11.75;7.60;;;17.00;44.60;;;;;;5073359;28;20041;-66
2022/01/16 04:39:13;;;;;;;11.95;7.25;;;17.00;44.60;;;;;;5044632;28;20037;-66
2022/01/16 04:44:22;;;;;;;11.43;7.80;;;16.90;44.50;;;;;;5063975;28;20119;-66
2022/01/16 04:46:48;;;;;;;11.52;7.43;;;16.90;44.50;;;;;;5073627;28;20120;-66
2022/01/16 04:49:14;;;;;;;11.80;7.53;;;16.90;44.60;;;;;;5074327;28;20447;-67
2022/01/16 04:51:40;;;;;;;12.55;7.88;;;16.90;44.50;;;;;;5066517;28;20028;-66
2022/01/16 04:54:05;;;;;;;13.43;8.02;;;16.90;45.50;;;;;;5055124;28;20033;-67
2022/01/16 04:56:31;;;;;;;11.73;7.43;;;16.90;45.50;;;;;;5055359;28;20065;-67
2022/01/16 04:58:57;;;;;;;12.20;7.90;;;16.90;44.60;;;;;;5054901;28;20443;-67
2022/01/16 05:01:23;;;;;;;12.70;7.68;;;16.80;44.50;;;;;;5069578;28;20036;-67
2022/01/16 05:03:49;;;;;;;12.57;7.72;;;16.80;44.50;;;;;;5065838;28;20021;-67
2022/01/16 05:06:15;;;;;;;13.00;8.15;;;16.80;44.50;;;;;;5066982;28;20024;-67
2022/01/16 05:08:41;;;;;;;13.95;7.97;;;16.80;44.50;;;;;;5074360;28;20056;-67
2022/01/16 05:11:08;;;;;;;10.18;7.30;;;16.80;44.50;;;;;;5071548;28;20064;-67
2022/01/16 05:18:50;;;;;;;12.10;8.07;;;16.80;44.40;;;;;;5071685;28;20559;-67
2022/01/16 05:21:15;;;;;;;12.25;7.95;;;16.80;44.50;;;;;;5051661;28;20172;-66
2022/01/16 05:23:42;;;;;;;13.30;8.25;;;16.70;44.40;;;;;;5062609;28;20120;-66
2022/01/16 05:26:08;;;;;;;12.20;7.97;;;16.70;44.50;;;;;;5073312;28;20461;-66
2022/01/16 05:28:35;;;;;;;13.52;8.73;;;16.70;44.50;;;;;;5073418;28;20052;-66
2022/01/16 05:31:00;;;;;;;12.60;8.13;;;16.70;44.50;;;;;;5072393;28;20039;-66
2022/01/16 05:33:26;;;;;;;14.63;7.85;;;16.70;44.50;;;;;;5069327;28;20052;-66
2022/01/16 05:35:52;;;;;;;12.73;8.00;;;16.70;44.50;;;;;;5071438;28;20036;-70
2022/01/16 05:38:18;;;;;;;12.85;8.32;;;16.70;44.50;;;;;;5068417;28;20021;-71
2022/01/16 05:40:44;;;;;;;11.98;7.80;;;16.70;44.50;;;;;;5055382;28;20033;-70
2022/01/16 05:43:11;;;;;;;12.65;8.32;;;16.70;44.50;;;;;;5066737;28;20024;-70
2022/01/16 05:45:37;;;;;;;14.25;8.38;;;16.70;44.50;;;;;;5056039;28;20466;-71
2022/01/16 05:48:03;;;;;;;14.32;8.18;;;16.60;44.40;;;;;;5073368;28;20032;-70
2022/01/16 05:50:31;;;;;;;12.82;8.43;;;16.70;44.50;;;;;;5062163;28;20033;-67
2022/01/16 05:52:57;;;;;;;13.75;8.48;;;16.60;44.40;;;;;;5063256;28;20035;-66
2022/01/16 05:55:23;;;;;;;14.60;7.93;;;16.60;44.40;;;;;;5062434;28;20032;-70
2022/01/16 05:57:48;;;;;;;13.10;8.32;;;16.60;44.40;;;;;;5052455;28;20033;-70
2022/01/16 06:00:15;;;;;;;14.57;8.90;;;16.60;44.40;;;;;;5071008;28;20035;-70
2022/01/16 06:02:41;;;;;;;13.27;8.10;;;16.60;44.40;;;;;;5072256;28;20507;-66
2022/01/16 06:05:07;;;;;;;14.52;8.20;;;16.60;44.40;;;;;;5062668;28;20111;-66
2022/01/16 06:07:33;;;;;;;14.18;8.93;;;16.60;44.40;;;;;;5070878;28;20032;-66
2022/01/16 06:09:59;;;;;;;13.48;8.15;;;16.60;44.50;;;;;;5073799;28;20028;-66
2022/01/16 06:12:24;;;;;;;13.10;7.80;;;16.60;44.40;;;;;;5072819;28;20040;-66
2022/01/16 06:14:50;;;;;;;12.75;8.27;;;16.60;44.40;;;;;;5065258;28;20040;-66
2022/01/16 06:17:16;;;;;;;14.65;7.93;;;16.50;44.40;;;;;;5055301;28;20060;-66
2022/01/16 06:19:42;;;;;;;12.73;8.15;;;16.50;44.40;;;;;;5058417;28;20670;-66
2022/01/16 06:22:07;;;;;;;13.95;8.07;;;16.50;44.40;;;;;;5064133;28;20472;-66
2022/01/16 06:24:33;;;;;;;13.60;8.45;;;16.50;44.40;;;;;;5073482;28;20017;-66
2022/01/16 06:26:59;;;;;;;14.00;8.30;;;16.50;44.40;;;;;;5072690;28;20036;-66
2022/01/16 06:29:25;;;;;;;13.50;8.10;;;16.50;44.40;;;;;;5064161;28;20025;-66
2022/01/16 06:31:51;;;;;;;14.40;8.48;;;16.50;44.40;;;;;;5069194;28;20472;-66
2022/01/16 06:34:17;;;;;;;14.10;7.80;;;16.50;44.40;;;;;;5054407;28;20164;-67
2022/01/16 06:36:42;;;;;;;15.88;8.55;;;16.50;44.40;;;;;;5072516;28;20028;-67
2022/01/16 06:39:11;;;;;;;15.70;8.70;;;16.50;44.40;;;;;;5067659;28;20515;-67
2022/01/16 06:41:38;;;;;;;15.00;8.52;;;16.50;44.40;;;;;;5070958;28;20052;-67
2022/01/16 06:44:04;;;;;;;13.60;7.95;;;16.50;44.40;;;;;;5066348;28;20029;-67
2022/01/16 06:46:29;;;;;;;13.95;8.77;;;16.40;44.40;;;;;;5062537;28;20032;-66
2022/01/16 06:48:55;;;;;;;13.57;7.88;;;16.40;44.30;;;;;;5072439;28;20464;-66
2022/01/16 06:51:23;;;;;;;13.65;8.27;;;16.40;44.30;;;;;;5070831;28;20480;-66
2022/01/16 06:53:50;;;;;;;12.77;8.23;;;16.40;44.40;;;;;;5057958;28;20112;-66
2022/01/16 06:56:17;;;;;;;14.65;8.45;;;16.40;44.30;;;;;;5059377;28;20056;-66
2022/01/16 06:58:43;;;;;;;14.15;8.30;;;16.40;44.40;;;;;;5055823;28;20078;-66
2022/01/16 07:01:10;;;;;;;13.50;7.90;;;16.40;44.40;;;;;;5065009;28;20112;-70
2022/01/16 07:03:36;;;;;;;13.57;8.52;;;16.40;44.40;;;;;;5071391;28;20024;-70
2022/01/16 07:06:03;;;;;;;14.73;8.63;;;16.40;44.40;;;;;;5072033;28;20466;-70
2022/01/16 07:08:29;;;;;;;12.52;8.00;;;16.40;44.40;;;;;;5073267;28;20021;-70
2022/01/16 07:10:56;;;;;;;12.88;8.55;;;16.40;44.40;;;;;;5071125;28;20104;-70
2022/01/16 07:13:23;;;;;;;14.43;8.93;;;16.40;44.40;;;;;;5060784;28;20022;-70
2022/01/16 07:15:49;;;;;;;14.18;8.77;;;16.30;44.30;;;;;;5060852;28;20056;-70
2022/01/16 07:18:16;;;;;;;13.95;8.27;;;16.30;44.30;;;;;;5054064;28;20052;-70
2022/01/16 07:20:46;;;;;;;15.93;9.65;;;16.30;44.30;;;;;;5071383;28;20025;-70
2022/01/16 07:23:13;;;;;;;14.00;9.07;;;16.30;44.40;;;;;;5054976;28;20024;-70
2022/01/16 07:25:40;;;;;;;14.02;8.80;;;16.30;44.30;;;;;;5069782;28;20021;-70
2022/01/16 07:28:06;;;;;;;12.30;7.70;;;16.30;44.30;;;;;;5061601;28;20028;-70
2022/01/16 07:30:32;;;;;;;14.48;8.93;;;16.30;44.40;;;;;;5058673;28;20039;-70
2022/01/16 07:32:58;;;;;;;14.75;8.93;;;16.30;44.40;;;;;;5063460;28;20059;-70
2022/01/16 07:35:23;;;;;;;14.93;8.88;;;16.30;44.40;;;;;;5071424;28;20041;-70
2022/01/16 07:37:51;;;;;;;14.50;8.77;;;16.30;44.30;;;;;;5067946;28;20499;-66
2022/01/16 07:40:18;;;;;;;12.77;8.45;;;16.30;44.40;;;;;;5071994;28;20532;-70
2022/01/16 07:42:44;;;;;;;13.60;8.50;;;16.30;44.40;;;;;;5075742;28;20033;-70
2022/01/16 07:45:10;;;;;;;15.52;8.90;;;16.30;45.30;;;;;;5075458;28;20021;-70
2022/01/16 07:47:36;;;;;;;14.98;9.13;;;16.20;44.30;;;;;;5056625;28;20549;-70
2022/01/16 07:50:02;;;;;;;14.30;8.90;;;16.20;44.30;;;;;;5062560;28;20029;-70
2022/01/16 07:52:27;;;;;;;12.27;8.60;;;16.20;44.30;;;;;;5071078;28;20112;-70
2022/01/16 07:54:53;;;;;;;13.90;8.57;;;16.20;44.30;;;;;;5059453;28;20102;-70
2022/01/16 07:57:19;;;;;;;12.07;8.10;;;16.20;44.30;;;;;;5063723;28;20491;-70
2022/01/16 07:59:44;;;;;;;13.70;8.52;;;16.20;44.30;;;;;;5059384;28;20033;-70
2022/01/16 08:02:10;;;;;;;13.77;8.93;;;16.20;44.30;;;;;;5063013;28;20032;-70
2022/01/16 08:04:36;;;;;;;14.48;8.63;;;16.20;44.30;;;;;;5073801;28;20064;-70
2022/01/16 08:07:03;;;;;;;12.27;8.02;;;16.20;44.40;;;;;;5056702;28;20029;-70
2022/01/16 08:09:29;;;;;;;24.08;14.60;;;16.20;44.30;;;;;;5061926;28;20024;-71
2022/01/16 08:11:55;;;;;;;24.88;15.48;;;16.20;43.70;;;;;;5060939;28;20040;-70
2022/01/16 08:14:20;;;;;;;27.08;16.50;;;15.60;43.10;;;;;;5055836;28;20069;-66
2022/01/16 08:16:46;;;;;;;26.27;16.63;;;14.90;44.30;;;;;;5069191;28;20491;-66
2022/01/16 08:19:12;;;;;;;29.52;17.73;;;14.30;45.20;;;;;;5074171;28;20029;-70
2022/01/16 08:21:37;;;;;;;28.08;16.42;;;13.90;46.50;;;;;;5074764;28;20099;-70
2022/01/16 08:24:04;;;;;;;26.63;14.38;;;13.50;47.30;;;;;;5068788;28;20024;-68
2022/01/16 08:26:31;;;;;;;25.92;15.27;;;13.30;48.30;;;;;;5066877;28;20061;-68
2022/01/16 08:28:57;;;;;;;21.25;13.77;;;13.30;48.80;;;;;;5052693;28;20033;-68
2022/01/16 08:31:23;;;;;;;25.58;14.48;;;13.30;49.30;;;;;;5075534;28;20078;-69
2022/01/16 08:33:49;;;;;;;24.45;13.25;;;13.40;49.20;;;;;;5059203;28;20057;-68
2022/01/16 08:36:15;;;;;;;18.80;11.13;;;13.30;49.30;;;;;;5045785;28;20080;-68
2022/01/16 08:38:41;;;;;;;17.48;10.68;;;13.30;49.80;;;;;;5058433;28;20053;-68
2022/01/16 08:41:06;;;;;;;14.68;9.77;;;13.60;50.10;;;;;;5075615;28;20025;-69
2022/01/16 08:43:32;;;;;;;15.73;9.63;;;14.00;49.80;;;;;;5058743;28;20075;-69
2022/01/16 08:45:58;;;;;;;15.15;8.80;;;14.30;49.10;;;;;;5070602;28;20052;-69
2022/01/16 08:48:24;;;;;;;14.70;8.95;;;14.60;48.60;;;;;;5057587;28;20376;-68
2022/01/16 08:50:49;;;;;;;14.98;8.60;;;14.90;48.00;;;;;;5075359;28;20028;-69
2022/01/16 08:53:15;;;;;;;13.48;8.68;;;15.20;47.50;;;;;;5075209;28;20029;-67
2022/01/16 08:55:41;;;;;;;12.48;7.93;;;15.40;47.00;;;;;;5074933;28;20033;-67
2022/01/16 08:58:06;;;;;;;12.60;7.82;;;15.70;46.60;;;;;;5072559;28;20033;-68
2022/01/16 09:00:32;;;;;;;11.75;7.03;;;15.90;46.20;;;;;;5055077;28;20090;-68
2022/01/16 09:02:58;;;;;;;11.95;7.10;;;16.10;45.80;;;;;;5052677;28;20028;-68
2022/01/16 09:05:25;;;;;;;10.93;6.88;;;16.30;45.40;;;;;;5075157;28;20362;-68
2022/01/16 09:07:51;;;;;;;11.18;7.07;;;16.50;45.10;;;;;;5073559;28;20048;-68
2022/01/16 09:10:17;;;;;;;9.90;6.45;;;16.70;44.70;;;;;;5074796;28;20356;-68
2022/01/16 09:12:43;;;;;;;11.18;6.72;;;16.80;44.30;;;;;;5056773;28;20032;-69
2022/01/16 09:15:10;;;;;;;10.10;6.88;;;17.00;44.00;;;;;;5057210;28;20422;-68
2022/01/16 09:17:36;;;;;;;10.95;6.70;;;17.20;43.70;;;;;;5074591;28;20028;-69
2022/01/16 09:20:02;;;;;;;11.77;6.85;;;17.30;43.40;;;;;;5074537;28;20361;-69
2022/01/16 09:22:28;;;;;;;11.60;6.43;;;17.40;43.10;;;;;;5074521;28;20044;-68
2022/01/16 09:24:53;;;;;;;9.02;5.85;;;17.60;42.90;;;;;;5074985;28;20404;-68
2022/01/16 09:27:19;;;;;;;8.98;6.25;;;17.70;42.60;;;;;;5074399;28;20033;-69
2022/01/16 09:29:45;;;;;;;8.98;6.30;;;17.80;42.30;;;;;;5057014;28;20032;-69
2022/01/16 09:32:13;;;;;;;9.10;5.80;;;17.90;42.10;;;;;;5071469;28;20031;-68
2022/01/16 09:34:39;;;;;;;9.73;6.10;;;18.10;41.90;;;;;;5054286;28;20079;-70
2022/01/16 09:37:08;;;;;;;8.65;5.43;;;18.20;41.60;;;;;;5070378;28;20104;-68
2022/01/16 09:39:35;;;;;;;9.15;5.97;;;18.30;41.40;;;;;;5073411;28;20025;-68
2022/01/16 09:42:03;;;;;;;8.38;5.57;;;18.40;41.20;;;;;;5074241;28;20020;-68
2022/01/16 09:44:29;;;;;;;9.20;5.65;;;18.50;41.00;;;;;;5074024;28;20025;-67
2022/01/16 09:46:57;;;;;;;9.35;5.78;;;18.60;40.80;;;;;;5074006;28;20539;-68
2022/01/16 09:49:23;;;;;;;9.38;5.82;;;18.70;40.60;;;;;;5073882;28;20029;-69
2022/01/16 09:51:51;;;;;;;8.32;5.88;;;18.80;40.50;;;;;;5068439;28;20048;-68
2022/01/16 09:54:19;;;;;;;8.73;5.57;;;18.90;40.20;;;;;;5071957;28;20059;-69
2022/01/16 09:56:45;;;;;;;9.65;5.97;;;19.00;40.00;;;;;;5066409;28;20119;-68
2022/01/16 09:59:10;;;;;;;7.72;5.35;;;19.00;39.90;;;;;;5054821;28;20174;-68
2022/01/16 10:01:36;;;;;;;9.68;6.20;;;19.10;39.70;;;;;;5056524;28;20116;-68
2022/01/16 10:04:02;;;;;;;8.32;5.82;;;19.20;39.50;;;;;;5055792;28;20021;-68
2022/01/16 10:06:27;;;;;;;8.52;5.38;;;19.30;39.40;;;;;;5065060;28;20033;-68
2022/01/16 10:08:54;;;;;;;8.27;5.70;;;19.40;39.30;;;;;;5036211;28;20388;-68
2022/01/16 10:11:41;;;;;;;8.23;5.80;;;19.40;39.30;;;;;;5053693;28;20499;-68
2022/01/16 10:14:20;;;;;;;10.18;6.03;;;19.40;39.10;;;;;;5061205;28;20368;-67
2022/01/16 10:16:46;;;;;;;9.27;5.82;;;19.40;39.30;;;;;;5073806;28;20056;-68
2022/01/16 10:19:27;;;;;;;9.70;6.03;;;19.40;39.40;;;;;;5073739;28;20059;-68
2022/01/16 10:22:00;;;;;;;9.63;5.97;;;19.30;39.00;;;;;;5062666;28;20100;-68
2022/01/16 10:24:28;;;;;;;10.18;5.90;;;19.30;39.30;;;;;;5059081;28;20066;-68
2022/01/16 10:27:12;;;;;;;9.98;5.80;;;19.30;39.20;;;;;;5072907;28;20025;-68
2022/01/16 10:29:47;;;;;;;11.63;6.60;;;19.40;38.80;;;;;;5064747;28;20112;-68
2022/01/16 10:32:21;;;;;;;9.68;6.53;;;19.50;39.00;;;;;;5064532;28;20029;-69
2022/01/16 10:34:49;;;;;;;9.90;6.75;;;19.50;38.80;;;;;;5064283;28;20103;-67
2022/01/16 10:37:33;;;;;;;12.60;6.78;;;19.60;38.80;;;;;;5070515;28;20051;-68
2022/01/16 10:40:10;;;;;;;12.07;7.30;;;19.70;38.50;;;;;;5068891;28;20103;-67
2022/01/16 10:42:39;;;;;;;10.48;6.13;;;19.80;38.40;;;;;;5064430;28;20096;-68
2022/01/16 10:45:10;;;;;;;10.95;6.93;;;19.80;38.50;;;;;;5067084;28;20103;-69
2022/01/16 10:47:37;;;;;;;10.60;6.47;;;19.90;38.40;;;;;;5053585;28;20460;-69
2022/01/16 10:50:02;;;;;;;10.40;6.90;;;20.00;38.40;;;;;;5053318;28;20025;-68
2022/01/16 10:52:28;;;;;;;10.90;6.68;;;20.10;38.30;;;;;;5062884;28;20024;-69
2022/01/16 10:54:53;;;;;;;11.05;6.90;;;20.10;38.20;;;;;;5070229;28;20123;-69
2022/01/16 10:57:27;;;;;;;11.90;6.50;;;20.10;38.10;;;;;;5053122;28;20434;-68
2022/01/16 11:00:08;;;;;;;12.30;7.07;;;20.20;37.90;;;;;;5053426;28;20120;-68
2022/01/16 11:02:33;;;;;;;11.50;6.57;;;20.30;37.70;;;;;;5059902;28;20025;-68
2022/01/16 11:05:10;;;;;;;11.27;7.57;;;20.40;37.90;;;;;;5053284;28;20151;-68
2022/01/16 11:07:37;;;;;;;11.63;7.10;;;20.40;37.70;;;;;;5054590;28;20021;-68
2022/01/16 11:10:45;;;;;;;12.15;7.35;;;20.50;37.70;;;;;;5057128;28;20095;-68
2022/01/16 11:13:15;;;;;;;14.05;7.80;;;20.60;37.30;;;;;;5049872;28;20043;-70
2022/01/16 11:15:43;;;;;;;11.48;7.15;;;20.60;37.50;;;;;;5056876;28;20028;-69
2022/01/16 11:18:10;;;;;;;11.23;7.40;;;20.70;37.40;;;;;;5065335;28;20020;-69
2022/01/16 11:20:38;;;;;;;11.50;6.43;;;20.70;37.30;;;;;;5077191;28;20028;-68
2022/01/16 11:25:37;;;;;;;12.95;8.07;;;20.90;37.00;;;;;;5076475;28;20084;-69
2022/01/16 11:28:21;;;;;;;12.20;7.40;;;20.90;37.00;;;;;;5072334;28;20120;-68
2022/01/16 11:30:50;;;;;;;13.18;8.38;;;21.00;36.60;;;;;;5071247;28;20032;-68
2022/01/16 11:33:17;;;;;;;15.60;9.52;;;21.00;36.70;;;;;;5046272;28;20037;-68
2022/01/16 11:36:01;;;;;;;15.02;9.00;;;21.00;36.50;;;;;;5070037;28;20475;-69
2022/01/16 11:38:35;;;;;;;17.42;9.27;;;21.20;37.20;;;;;;5068425;28;20024;-70
2022/01/16 11:41:20;;;;;;;16.90;9.02;;;21.20;36.20;;;;;;5067579;28;20017;-69
2022/01/16 11:43:50;;;;;;;15.77;9.00;;;21.20;36.00;;;;;;5063122;28;20491;-70
2022/01/16 11:46:39;;;;;;;15.80;9.35;;;21.20;36.20;;;;;;5057019;28;20028;-71
2022/01/16 11:49:06;;;;;;;15.05;8.57;;;21.30;36.00;;;;;;5058359;28;20052;-71
2022/01/16 11:51:35;;;;;;;13.38;8.15;;;21.30;36.20;;;;;;5075207;28;20035;-69
2022/01/16 11:54:27;;;;;;;15.63;8.15;;;21.40;36.10;;;;;;5076256;28;20032;-68
2022/01/16 11:56:57;;;;;;;16.65;8.68;;;21.40;36.10;;;;;;5056767;28;20029;-69
2022/01/16 11:59:24;;;;;;;14.68;8.23;;;21.40;36.40;;;;;;5057091;28;20029;-68
2022/01/16 12:01:52;;;;;;;14.60;8.55;;;21.30;36.60;;;;;;5069455;28;20032;-70
2022/01/16 12:04:30;;;;;;;14.85;8.75;;;21.30;36.70;;;;;;5055759;28;20096;-66
2022/01/16 12:07:22;;;;;;;16.10;9.32;;;21.30;36.80;;;;;;5064754;28;20036;-67
2022/01/16 12:09:49;;;;;;;13.82;8.82;;;21.20;36.80;;;;;;5075833;28;20038;-66
2022/01/16 12:12:15;;;;;;;16.13;9.20;;;21.10;37.00;;;;;;5075949;28;20024;-66
2022/01/16 12:14:56;;;;;;;16.52;10.07;;;21.10;37.10;;;;;;5075356;28;20021;-68
2022/01/16 12:17:28;;;;;;;14.90;9.20;;;21.00;37.10;;;;;;5072015;28;20041;-69
2022/01/16 12:20:06;;;;;;;16.33;9.18;;;21.00;37.40;;;;;;5055336;28;20025;-69
2022/01/16 12:22:53;;;;;;;16.40;9.63;;;20.90;37.60;;;;;;5066258;28;20033;-67
2022/01/16 12:25:45;;;;;;;15.43;9.68;;;20.90;37.90;;;;;;5074349;28;20464;-66
2022/01/16 12:28:10;;;;;;;15.80;9.38;;;20.90;37.90;;;;;;5064368;28;20471;-66
2022/01/16 12:30:52;;;;;;;17.35;10.38;;;20.80;38.20;;;;;;5057846;28;20090;-66
2022/01/16 12:33:35;;;;;;;16.27;8.80;;;20.80;38.30;;;;;;5065902;28;20055;-67
2022/01/16 12:36:23;;;;;;;16.02;8.82;;;20.80;38.40;;;;;;5061766;28;20048;-66
2022/01/16 12:38:59;;;;;;;13.25;8.68;;;20.70;38.50;;;;;;5062296;28;20047;-66
2022/01/16 12:41:27;;;;;;;15.48;8.93;;;20.70;38.50;;;;;;5072065;28;20039;-67
2022/01/16 12:44:07;;;;;;;18.52;8.82;;;20.70;38.60;;;;;;5069019;28;20021;-68
2022/01/16 12:46:35;;;;;;;14.48;9.07;;;20.70;38.60;;;;;;5072653;28;20031;-67
2022/01/16 12:49:07;;;;;;;14.43;8.63;;;20.70;38.60;;;;;;5060513;28;20485;-70
2022/01/16 12:51:34;;;;;;;15.88;8.23;;;20.70;38.80;;;;;;5068696;28;20391;-67
2022/01/16 12:54:04;;;;;;;21.45;9.93;;;20.70;38.70;;;;;;5075018;28;20032;-69
2022/01/16 12:56:31;;;;;;;14.10;8.88;;;20.70;38.60;;;;;;5059373;28;20029;-69
2022/01/16 12:59:09;;;;;;;17.73;8.60;;;20.70;38.60;;;;;;5054440;28;20021;-69
2022/01/16 13:01:35;;;;;;;14.98;8.35;;;20.70;38.60;;;;;;5057136;28;20021;-69
2022/01/16 13:04:01;;;;;;;14.45;8.43;;;20.70;38.70;;;;;;5054793;28;20059;-69
2022/01/16 13:06:32;;;;;;;13.60;8.65;;;20.70;38.60;;;;;;5064331;28;20064;-69
2022/01/16 13:09:09;;;;;;;12.57;7.90;;;20.70;38.60;;;;;;5073904;28;20032;-69
2022/01/16 13:11:49;;;;;;;16.17;7.90;;;20.70;38.30;;;;;;5073035;28;20082;-69
2022/01/16 13:14:25;;;;;;;12.63;7.78;;;20.70;38.20;;;;;;5069423;28;20035;-69
2022/01/16 13:16:54;;;;;;;11.57;7.57;;;20.70;38.40;;;;;;5074081;28;20028;-69
2022/01/16 13:19:25;;;;;;;14.50;9.02;;;20.70;38.40;;;;;;5070431;28;20048;-69
2022/01/16 13:22:04;;;;;;;13.05;7.93;;;20.70;38.40;;;;;;5064385;28;20039;-69
2022/01/16 13:24:56;;;;;;;13.95;8.00;;;20.80;38.40;;;;;;5072566;28;20020;-69
2022/01/16 13:27:39;;;;;;;13.75;8.00;;;20.70;38.20;;;;;;5057375;28;20044;-69
2022/01/16 13:30:23;;;;;;;13.40;8.40;;;20.70;38.20;;;;;;5046178;28;20029;-69
2022/01/16 13:32:50;;;;;;;12.45;7.75;;;20.70;38.30;;;;;;5055803;28;20044;-69
2022/01/16 13:35:24;;;;;;;13.60;8.57;;;20.60;38.20;;;;;;5071941;28;20074;-68